createdAt,value
2018-10-19T00:02:02.491Z,92.50
2018-10-19T00:04:30.966Z,92.50
2018-10-19T00:06:59.677Z,92.60
2018-10-19T00:09:28.097Z,92.60
2018-10-19T00:11:56.520Z,92.50
2018-10-19T00:14:25.412Z,92.30
2018-10-19T00:16:53.951Z,92.50
2018-10-19T00:19:22.411Z,92.40
2018-10-19T00:21:51.240Z,92.60
2018-10-19T00:24:20.138Z,92.60
2018-10-19T00:26:48.730Z,92.90
2018-10-19T00:29:17.218Z,92.80
2018-10-19T00:31:46.051Z,92.60
2018-10-19T00:34:14.644Z,93.20
2018-10-19T00:36:43.149Z,93.10
2018-10-19T00:39:12.892Z,93.00
2018-10-19T00:41:41.929Z,92.70
2018-10-19T00:44:10.885Z,92.90
2018-10-19T00:46:39.460Z,92.70
2018-10-19T00:49:07.928Z,92.80
2018-10-19T00:51:36.710Z,92.90
2018-10-19T00:54:05.606Z,92.70
2018-10-19T00:56:34.390Z,92.70
2018-10-19T00:59:02.818Z,93.00
2018-10-19T01:01:31.530Z,93.10
2018-10-19T01:04:00.528Z,92.80
2018-10-19T01:06:28.945Z,92.70
2018-10-19T01:08:57.638Z,92.70
2018-10-19T01:11:26.059Z,93.00
2018-10-19T01:13:54.512Z,93.00
2018-10-19T01:16:22.982Z,93.00
2018-10-19T01:18:51.672Z,92.80
2018-10-19T01:21:20.386Z,93.00
2018-10-19T01:23:48.830Z,93.10
2018-10-19T01:26:17.329Z,93.00
2018-10-19T01:28:45.836Z,92.90
2018-10-19T01:31:14.213Z,92.90
2018-10-19T01:33:42.651Z,92.90
2018-10-19T01:36:11.018Z,93.10
2018-10-19T01:38:39.552Z,92.90
2018-10-19T01:41:08.297Z,93.00
2018-10-19T01:43:36.688Z,93.10
2018-10-19T01:46:05.292Z,93.00
2018-10-19T01:48:33.748Z,92.90
2018-10-19T01:51:02.224Z,92.90
2018-10-19T01:53:30.773Z,93.00
2018-10-19T01:55:59.193Z,93.10
2018-10-19T01:58:28.152Z,93.10
2018-10-19T02:00:56.743Z,93.10
2018-10-19T02:03:25.362Z,93.00
2018-10-19T02:05:54.293Z,93.20
2018-10-19T02:08:22.694Z,93.20
2018-10-19T02:10:51.418Z,93.10
2018-10-19T02:13:19.829Z,93.20
2018-10-19T02:15:48.385Z,93.30
2018-10-19T02:18:17.030Z,93.50
2018-10-19T02:20:45.745Z,93.30
2018-10-19T02:23:14.517Z,93.60
2018-10-19T02:25:43.407Z,93.40
2018-10-19T02:28:11.825Z,93.60
2018-10-19T02:30:40.317Z,93.60
2018-10-19T02:33:08.756Z,93.60
2018-10-19T02:35:37.393Z,93.30
2018-10-19T02:38:06.392Z,93.60
2018-10-19T02:40:34.899Z,93.60
2018-10-19T02:43:03.580Z,93.50
2018-10-19T02:45:34.340Z,94.00
2018-10-19T02:48:03.469Z,93.60
2018-10-19T02:50:32.221Z,93.90
2018-10-19T02:53:00.635Z,93.60
2018-10-19T02:55:29.236Z,93.40
2018-10-19T02:57:57.650Z,93.30
2018-10-19T03:00:26.297Z,93.70
2018-10-19T03:02:54.832Z,93.70
2018-10-19T03:05:23.194Z,93.70
2018-10-19T03:07:51.889Z,93.90
2018-10-19T03:10:20.257Z,93.60
2018-10-19T03:12:48.824Z,93.70
2018-10-19T03:15:17.265Z,93.90
2018-10-19T03:17:46.053Z,93.70
2018-10-19T03:20:14.814Z,93.80
2018-10-19T03:22:43.298Z,94.30
2018-10-19T03:25:12.206Z,94.30
2018-10-19T03:27:40.750Z,94.30
2018-10-19T03:30:09.733Z,94.70
2018-10-19T03:32:38.153Z,94.50
2018-10-19T03:35:06.896Z,94.50
2018-10-19T03:37:35.431Z,94.80
2018-10-19T03:40:04.130Z,94.50
2018-10-19T03:42:32.834Z,94.30
2018-10-19T03:45:01.348Z,94.60
2018-10-19T03:47:29.677Z,94.70
2018-10-19T03:49:58.339Z,94.40
2018-10-19T03:52:27.055Z,94.60
2018-10-19T03:54:55.696Z,94.60
2018-10-19T03:57:24.374Z,94.70
2018-10-19T03:59:53.171Z,94.80
2018-10-19T04:02:21.922Z,94.70
2018-10-19T04:04:50.394Z,94.80
2018-10-19T04:07:18.856Z,94.80
2018-10-19T04:09:47.248Z,94.70
2018-10-19T04:12:15.734Z,94.60
2018-10-19T04:14:44.121Z,94.50
2018-10-19T04:17:12.674Z,94.80
2018-10-19T04:19:41.024Z,94.60
2018-10-19T04:22:09.906Z,94.50
2018-10-19T04:24:38.593Z,94.30
2018-10-19T04:27:07.205Z,94.40
2018-10-19T04:29:35.636Z,94.50
2018-10-19T04:32:04.522Z,94.50
2018-10-19T04:34:33.199Z,94.30
2018-10-19T04:37:04.156Z,94.70
2018-10-19T04:39:33.428Z,94.50
2018-10-19T04:42:02.417Z,94.60
2018-10-19T04:44:31.075Z,94.60
2018-10-19T04:46:59.563Z,94.70
2018-10-19T04:49:28.294Z,94.50
2018-10-19T04:51:57.087Z,94.40
2018-10-19T04:54:25.914Z,94.50
2018-10-19T04:56:54.418Z,94.30
2018-10-19T04:59:23.077Z,94.40
2018-10-19T05:01:51.961Z,94.60
2018-10-19T05:04:20.398Z,94.20
2018-10-19T05:06:49.209Z,94.50
2018-10-19T05:09:17.565Z,94.50
2018-10-19T05:11:46.255Z,94.50
2018-10-19T05:14:14.946Z,94.50
2018-10-19T05:16:43.398Z,94.30
2018-10-19T05:19:12.125Z,94.40
2018-10-19T05:21:40.761Z,94.60
2018-10-19T05:24:09.221Z,94.70
2018-10-19T05:26:37.942Z,94.30
2018-10-19T05:29:06.516Z,94.40
2018-10-19T05:31:35.168Z,94.20
2018-10-19T05:34:03.864Z,94.50
2018-10-19T05:36:32.357Z,94.40
2018-10-19T05:39:00.886Z,94.20
2018-10-19T05:41:29.480Z,94.30
2018-10-19T05:43:58.093Z,94.40
2018-10-19T05:46:26.510Z,94.20
2018-10-19T05:48:54.958Z,94.10
2018-10-19T05:51:23.668Z,94.20
2018-10-19T05:53:52.377Z,94.60
2018-10-19T05:56:20.862Z,94.30
2018-10-19T05:58:49.312Z,94.30
2018-10-19T06:01:17.710Z,94.40
2018-10-19T06:03:46.205Z,94.40
2018-10-19T06:06:14.658Z,94.30
2018-10-19T06:08:43.130Z,94.40
2018-10-19T06:11:12.018Z,94.50
2018-10-19T06:13:40.442Z,94.40
2018-10-19T06:16:08.982Z,94.70
2018-10-19T06:18:37.718Z,94.40
2018-10-19T06:21:06.441Z,94.60
2018-10-19T06:23:34.880Z,94.60
2018-10-19T06:26:03.426Z,94.40
2018-10-19T06:28:32.104Z,94.40
2018-10-19T06:31:00.694Z,94.30
2018-10-19T06:33:29.509Z,94.50
2018-10-19T06:35:57.953Z,94.50
2018-10-19T06:38:26.671Z,94.60
2018-10-19T06:40:55.124Z,94.50
2018-10-19T06:43:23.582Z,94.70
2018-10-19T06:45:52.085Z,94.60
2018-10-19T06:48:20.511Z,94.50
2018-10-19T06:50:48.921Z,95.40
2018-10-19T06:53:17.537Z,94.90
2018-10-19T06:55:45.957Z,94.80
2018-10-19T06:58:14.417Z,94.80
2018-10-19T07:00:43.147Z,94.70
2018-10-19T07:03:11.607Z,94.80
2018-10-19T07:05:40.068Z,94.70
2018-10-19T07:08:08.626Z,94.80
2018-10-19T07:10:36.969Z,94.90
2018-10-19T07:13:05.459Z,94.80
2018-10-19T07:15:33.903Z,94.70
2018-10-19T07:18:02.672Z,94.80
2018-10-19T07:20:31.117Z,95.10
2018-10-19T07:22:59.669Z,95.00
2018-10-19T07:25:28.081Z,95.10
2018-10-19T07:27:57.301Z,95.00
2018-10-19T07:30:25.806Z,95.30
2018-10-19T07:32:54.341Z,94.80
2018-10-19T07:35:22.921Z,95.40
2018-10-19T07:37:51.425Z,95.30
2018-10-19T07:40:20.164Z,95.40
2018-10-19T07:42:48.920Z,95.30
2018-10-19T07:45:17.366Z,95.00
2018-10-19T07:47:46.116Z,95.10
2018-10-19T07:50:16.056Z,94.90
2018-10-19T07:52:44.618Z,95.10
2018-10-19T07:55:13.277Z,94.80
2018-10-19T07:57:41.750Z,94.80
2018-10-19T08:00:10.787Z,94.50
2018-10-19T08:02:39.278Z,94.40
2018-10-19T08:05:08.745Z,94.20
2018-10-19T08:07:37.678Z,94.70
2018-10-19T08:10:07.439Z,94.60
2018-10-19T08:12:35.884Z,94.40
2018-10-19T08:15:05.397Z,93.50
2018-10-19T08:17:34.102Z,93.70
2018-10-19T08:20:02.606Z,94.10
2018-10-19T08:22:30.934Z,94.20
2018-10-19T08:24:59.628Z,94.40
2018-10-19T08:27:28.312Z,94.00
2018-10-19T08:29:56.740Z,93.20
2018-10-19T08:32:25.407Z,92.60
2018-10-19T08:34:53.852Z,92.50
2018-10-19T08:37:22.496Z,92.60
2018-10-19T08:39:50.981Z,92.80
2018-10-19T08:42:19.809Z,92.50
2018-10-19T08:44:48.275Z,93.50
2018-10-19T08:47:16.784Z,92.50
2018-10-19T08:49:45.639Z,92.90
2018-10-19T08:52:14.539Z,92.40
2018-10-19T08:54:43.494Z,92.30
2018-10-19T08:57:11.895Z,92.80
2018-10-19T08:59:41.495Z,92.50
2018-10-19T09:02:09.996Z,92.60
2018-10-19T09:04:38.662Z,92.20
2018-10-19T09:07:07.040Z,92.50
2018-10-19T09:09:35.705Z,92.00
2018-10-19T09:12:04.196Z,91.80
2018-10-19T09:14:54.651Z,91.70
2018-10-19T09:17:24.152Z,91.90
2018-10-19T09:19:52.889Z,92.00
2018-10-19T09:22:21.584Z,91.70
2018-10-19T09:24:50.449Z,92.30
2018-10-19T09:27:19.021Z,91.70
2018-10-19T09:29:47.624Z,91.90
2018-10-19T09:32:16.654Z,92.10
2018-10-19T09:34:45.342Z,91.60
2018-10-19T09:37:14.590Z,91.30
2018-10-19T09:39:43.080Z,91.40
2018-10-19T09:42:11.945Z,90.80
2018-10-19T09:44:40.557Z,91.30
2018-10-19T09:47:09.080Z,91.00
2018-10-19T09:49:37.468Z,91.00
2018-10-19T09:52:06.174Z,91.80
2018-10-19T09:54:34.834Z,91.10
2018-10-19T09:57:03.839Z,90.80
2018-10-19T09:59:32.263Z,90.50
2018-10-19T10:02:01.227Z,91.10
2018-10-19T10:04:29.681Z,90.80
2018-10-19T10:06:58.310Z,90.60
2018-10-19T10:09:26.750Z,91.20
2018-10-19T10:11:55.120Z,91.30
2018-10-19T10:14:24.047Z,91.00
2018-10-19T10:16:52.811Z,90.80
2018-10-19T10:19:21.415Z,90.80
2018-10-19T10:21:50.347Z,90.70
2018-10-19T10:24:19.234Z,90.70
2018-10-19T10:26:47.944Z,90.90
2018-10-19T10:29:16.504Z,91.10
2018-10-19T10:31:45.245Z,91.80
2018-10-19T10:34:13.712Z,91.10
2018-10-19T10:36:42.050Z,90.90
2018-10-19T10:39:12.791Z,91.20
2018-10-19T10:41:41.114Z,90.80
2018-10-19T10:44:09.697Z,90.70
2018-10-19T10:46:38.583Z,90.70
2018-10-19T10:49:07.309Z,90.70
2018-10-19T10:51:35.751Z,90.00
2018-10-19T10:54:04.494Z,90.00
2018-10-19T10:56:32.888Z,89.10
2018-10-19T10:59:01.327Z,90.50
2018-10-19T11:01:30.223Z,90.40
2018-10-19T11:03:58.734Z,90.30
2018-10-19T11:06:27.159Z,90.00
2018-10-19T11:08:55.558Z,90.00
2018-10-19T11:11:24.016Z,90.00
2018-10-19T11:13:52.554Z,90.10
2018-10-19T11:16:20.992Z,89.80
2018-10-19T11:18:49.410Z,90.50
2018-10-19T11:21:17.881Z,90.00
2018-10-19T11:23:46.318Z,87.10
2018-10-19T11:26:14.696Z,88.50
2018-10-19T11:28:43.190Z,88.20
2018-10-19T11:31:11.730Z,88.50
2018-10-19T11:33:40.105Z,88.30
2018-10-19T11:36:08.788Z,87.30
2018-10-19T11:38:37.181Z,86.80
2018-10-19T11:41:05.747Z,88.80
2018-10-19T11:43:34.139Z,88.50
2018-10-19T11:46:02.645Z,87.00
2018-10-19T11:48:31.148Z,86.80
2018-10-19T11:51:00.702Z,85.80
2018-10-19T11:53:29.713Z,85.90
2018-10-19T11:55:58.140Z,86.60
2018-10-19T11:58:26.797Z,86.60
2018-10-19T12:00:55.278Z,84.60
2018-10-19T12:03:23.761Z,86.10
2018-10-19T12:05:52.149Z,86.00
2018-10-19T12:08:20.601Z,83.90
2018-10-19T12:10:49.139Z,84.00
2018-10-19T12:13:17.525Z,84.00
2018-10-19T12:15:46.241Z,83.80
2018-10-19T12:18:14.782Z,84.80
2018-10-19T12:20:44.547Z,85.20
2018-10-19T12:23:13.394Z,82.40
2018-10-19T12:25:42.491Z,83.30
2018-10-19T12:28:18.271Z,82.10
2018-10-19T12:30:46.782Z,83.00
2018-10-19T12:33:15.457Z,82.90
2018-10-19T12:35:44.191Z,82.40
2018-10-19T12:38:12.927Z,83.90
2018-10-19T12:40:41.365Z,81.20
2018-10-19T12:43:10.055Z,80.50
2018-10-19T12:46:48.194Z,80.50
2018-10-19T12:49:18.415Z,81.60
2018-10-19T12:51:46.852Z,81.80
2018-10-19T12:54:15.577Z,81.30
2018-10-19T12:56:44.251Z,82.70
2018-10-19T12:59:12.726Z,82.40
2018-10-19T13:01:41.089Z,82.60
2018-10-19T13:04:10.341Z,84.40
2018-10-19T13:06:38.848Z,85.40
2018-10-19T13:09:10.296Z,82.40
2018-10-19T13:11:38.910Z,82.10
2018-10-19T13:14:07.384Z,82.00
2018-10-19T13:16:35.880Z,80.80
2018-10-19T13:19:06.587Z,82.50
2018-10-19T13:21:35.054Z,81.80
2018-10-19T13:24:03.533Z,81.60
2018-10-19T13:26:32.318Z,81.40
2018-10-19T13:29:01.078Z,82.30
2018-10-19T13:31:29.584Z,82.90
2018-10-19T13:33:58.072Z,82.00
2018-10-19T13:36:26.484Z,82.70
2018-10-19T13:38:54.968Z,80.80
2018-10-19T13:41:23.414Z,82.20
2018-10-19T13:43:51.818Z,80.10
2018-10-19T13:46:20.308Z,81.60
2018-10-19T13:48:49.037Z,80.80
2018-10-19T13:51:17.725Z,83.00
2018-10-19T13:53:46.064Z,81.70
2018-10-19T13:56:14.452Z,81.20
2018-10-19T13:58:42.889Z,81.20
2018-10-19T14:01:11.546Z,81.00
2018-10-19T14:03:39.942Z,80.90
2018-10-19T14:06:08.897Z,82.60
2018-10-19T14:08:37.351Z,81.70
2018-10-19T14:11:06.454Z,80.90
2018-10-19T14:13:34.919Z,82.60
2018-10-19T14:16:03.658Z,82.00
2018-10-19T14:18:32.112Z,82.00
2018-10-19T14:21:01.102Z,82.40
2018-10-19T14:23:29.540Z,82.60
2018-10-19T14:25:57.925Z,82.90
2018-10-19T14:28:26.783Z,80.90
2018-10-19T14:30:55.173Z,81.70
2018-10-19T14:33:23.678Z,81.50
2018-10-19T14:35:52.133Z,81.50
2018-10-19T14:38:20.984Z,81.90
2018-10-19T14:40:49.428Z,82.30
2018-10-19T14:43:18.044Z,83.30
2018-10-19T14:45:46.454Z,82.40
2018-10-19T14:48:14.817Z,83.20
2018-10-19T14:50:43.177Z,82.10
2018-10-19T14:53:11.636Z,81.40
2018-10-19T14:55:40.003Z,81.80
2018-10-19T14:58:08.293Z,82.90
2018-10-19T15:00:36.712Z,81.30
2018-10-19T15:03:05.252Z,82.30
2018-10-19T15:05:34.604Z,82.60
2018-10-19T15:08:03.315Z,82.60
2018-10-19T15:10:32.255Z,82.40
2018-10-19T15:13:00.362Z,81.30
2018-10-19T15:15:28.788Z,83.00
2018-10-19T15:17:57.172Z,83.10
2018-10-19T15:20:25.501Z,80.60
2018-10-19T15:22:53.924Z,81.50
2018-10-19T15:25:22.300Z,81.70
2018-10-19T15:27:51.036Z,81.70
2018-10-19T15:30:20.041Z,81.20
2018-10-19T15:32:48.741Z,81.60
2018-10-19T15:35:17.187Z,82.50
2018-10-19T15:37:45.615Z,82.20
2018-10-19T15:40:14.029Z,82.40
2018-10-19T15:42:42.489Z,82.80
2018-10-19T15:45:12.612Z,81.30
2018-10-19T15:47:41.045Z,82.50
2018-10-19T15:50:09.862Z,83.30
2018-10-19T15:52:38.363Z,82.90
2018-10-19T15:55:07.103Z,83.00
2018-10-19T15:57:35.545Z,83.10
2018-10-19T16:00:04.103Z,84.70
2018-10-19T16:02:32.687Z,82.40
2018-10-19T16:05:01.194Z,83.30
2018-10-19T16:07:29.622Z,84.40
2018-10-19T16:09:58.018Z,83.50
2018-10-19T16:12:26.453Z,85.00
2018-10-19T16:14:55.265Z,82.10
2018-10-19T16:17:23.672Z,83.90
2018-10-19T16:19:52.122Z,83.60
2018-10-19T16:22:20.983Z,83.30
2018-10-19T16:24:49.437Z,84.00
2018-10-19T16:27:18.203Z,83.70
2018-10-19T16:29:46.838Z,83.90
2018-10-19T16:32:15.878Z,84.60
2018-10-19T16:34:44.301Z,85.20
2018-10-19T16:37:12.657Z,85.00
2018-10-19T16:39:41.226Z,85.40
2018-10-19T16:42:09.724Z,85.90
2018-10-19T16:44:38.440Z,85.00
2018-10-19T16:47:07.321Z,86.50
2018-10-19T16:49:35.746Z,85.90
2018-10-19T16:52:04.620Z,85.80
2018-10-19T16:54:33.241Z,86.90
2018-10-19T16:57:01.684Z,85.90
2018-10-19T16:59:30.385Z,85.60
2018-10-19T17:01:59.025Z,87.00
2018-10-19T17:04:27.565Z,86.60
2018-10-19T17:06:56.001Z,86.40
2018-10-19T17:09:24.465Z,86.60
2018-10-19T17:11:53.965Z,86.20
2018-10-19T17:14:22.738Z,86.70
2018-10-19T17:16:51.630Z,86.70
2018-10-19T17:19:20.616Z,86.80
2018-10-19T17:21:49.230Z,87.30
2018-10-19T17:24:18.623Z,87.00
2018-10-19T17:26:47.210Z,87.30
2018-10-19T17:29:16.137Z,87.70
2018-10-19T17:31:44.772Z,87.80
2018-10-19T17:34:13.186Z,87.80
2018-10-19T17:36:43.978Z,88.10
2018-10-19T17:39:13.626Z,87.30
2018-10-19T17:41:42.414Z,87.70
2018-10-19T17:44:11.720Z,88.20
2018-10-19T17:46:40.654Z,89.90
2018-10-19T17:49:09.264Z,89.40
2018-10-19T17:51:39.247Z,89.40
2018-10-19T17:54:07.839Z,89.60
2018-10-19T17:56:36.632Z,89.40
2018-10-19T17:59:05.505Z,90.00
2018-10-19T18:01:34.022Z,90.20
2018-10-19T18:04:08.482Z,90.00
2018-10-19T18:06:37.183Z,90.00
2018-10-19T18:09:09.050Z,90.20
2018-10-19T18:11:37.451Z,90.10
2018-10-19T18:14:05.881Z,90.30
2018-10-19T18:16:34.441Z,90.30
2018-10-19T18:19:03.091Z,90.10
2018-10-19T18:21:31.598Z,90.60
2018-10-19T18:24:00.337Z,90.70
2018-10-19T18:26:28.795Z,90.50
2018-10-19T18:28:57.246Z,90.80
2018-10-19T18:31:25.566Z,90.70
2018-10-19T18:33:54.249Z,90.70
2018-10-19T18:36:22.995Z,90.50
2018-10-19T18:38:51.397Z,90.70
2018-10-19T18:41:19.957Z,91.20
2018-10-19T18:43:48.386Z,91.40
2018-10-19T18:46:16.757Z,91.10
2018-10-19T18:48:45.571Z,90.80
2018-10-19T18:51:13.978Z,91.20
2018-10-19T18:53:42.639Z,91.10
2018-10-19T18:56:11.342Z,91.40
2018-10-19T18:58:39.732Z,91.40
2018-10-19T19:01:08.218Z,91.30
2018-10-19T19:03:36.661Z,91.30
2018-10-19T19:06:05.555Z,91.30
2018-10-19T19:08:33.973Z,91.40
2018-10-19T19:11:02.843Z,91.30
2018-10-19T19:13:32.287Z,91.40
2018-10-19T19:16:01.193Z,91.40
2018-10-19T19:18:29.634Z,92.00
2018-10-19T19:20:58.091Z,91.30
2018-10-19T19:23:26.746Z,91.30
2018-10-19T19:26:00.448Z,91.80
2018-10-19T19:28:28.989Z,91.20
2018-10-19T19:30:57.475Z,92.10
2018-10-19T19:33:31.348Z,91.60
2018-10-19T19:35:59.826Z,91.60
2018-10-19T19:38:28.320Z,92.20
2018-10-19T19:41:02.522Z,91.60
2018-10-19T19:43:30.898Z,91.50
2018-10-19T19:45:59.402Z,91.20
2018-10-19T19:48:33.291Z,91.50
2018-10-19T19:51:02.173Z,91.50
2018-10-19T19:53:30.660Z,91.00
2018-10-19T19:55:59.693Z,91.50
2018-10-19T19:58:28.110Z,91.80
2018-10-19T20:00:57.149Z,91.80
2018-10-19T20:03:25.574Z,91.60
2018-10-19T20:05:54.458Z,91.50
2018-10-19T20:08:22.954Z,91.50
2018-10-19T20:10:51.425Z,91.70
2018-10-19T20:13:20.138Z,91.90
2018-10-19T20:15:48.702Z,91.80
2018-10-19T20:18:17.600Z,91.50
2018-10-19T20:20:45.978Z,91.90
2018-10-19T20:23:15.602Z,91.60
2018-10-19T20:25:44.091Z,91.90
2018-10-19T20:28:14.411Z,91.70
2018-10-19T20:30:42.804Z,91.80
2018-10-19T20:33:11.576Z,91.80
2018-10-19T20:35:40.050Z,91.90
2018-10-19T20:38:08.565Z,92.00
2018-10-19T20:40:37.005Z,91.90
2018-10-19T20:43:06.337Z,91.90
2018-10-19T20:45:34.908Z,92.00
2018-10-19T20:48:03.427Z,92.00
2018-10-19T20:50:31.878Z,92.10
2018-10-19T20:53:00.486Z,92.00
2018-10-19T20:55:29.591Z,92.70
2018-10-19T20:57:58.278Z,92.60
2018-10-19T21:00:26.725Z,92.80
2018-10-19T21:02:57.147Z,92.70
2018-10-19T21:05:25.607Z,92.90
2018-10-19T21:07:54.043Z,92.90
2018-10-19T21:10:22.454Z,93.00
2018-10-19T21:12:51.222Z,93.10
2018-10-19T21:15:19.771Z,92.90
2018-10-19T21:17:48.610Z,92.90
2018-10-19T21:20:18.018Z,93.10
2018-10-19T21:22:48.698Z,92.90
2018-10-19T21:25:17.433Z,93.00
2018-10-19T21:27:46.250Z,93.00
2018-10-19T21:30:14.877Z,92.90
2018-10-19T21:32:44.206Z,93.40
2018-10-19T21:35:13.082Z,93.30
2018-10-19T21:37:41.569Z,93.20
2018-10-19T21:40:10.017Z,93.40
2018-10-19T21:42:38.786Z,93.10
2018-10-19T21:45:08.220Z,93.20
2018-10-19T21:47:36.746Z,93.40
2018-10-19T21:50:06.143Z,93.40
2018-10-19T21:52:34.782Z,93.40
2018-10-19T21:55:03.310Z,93.50
2018-10-19T21:57:31.746Z,93.30
2018-10-19T22:00:00.188Z,93.20
2018-10-19T22:02:28.646Z,93.60
2018-10-19T22:04:57.207Z,93.40
2018-10-19T22:07:26.001Z,93.50
2018-10-19T22:09:54.407Z,93.50
2018-10-19T22:12:22.864Z,93.70
2018-10-19T22:14:51.409Z,94.10
2018-10-19T22:17:20.068Z,94.00
2018-10-19T22:19:48.748Z,93.90
2018-10-19T22:22:17.189Z,93.80
2018-10-19T22:24:45.671Z,94.10
2018-10-19T22:27:14.294Z,93.80
2018-10-19T22:29:42.795Z,93.70
2018-10-19T22:32:11.207Z,93.70
2018-10-19T22:34:40.106Z,93.70
2018-10-19T22:37:08.933Z,93.70
2018-10-19T22:39:37.447Z,93.90
2018-10-19T22:42:06.859Z,93.90
2018-10-19T22:44:36.729Z,93.70
2018-10-19T22:47:06.005Z,94.20
2018-10-19T22:49:34.357Z,94.20
2018-10-19T22:52:02.829Z,94.20
2018-10-19T22:54:31.559Z,94.30
2018-10-19T22:57:00.039Z,94.30
2018-10-19T22:59:28.452Z,94.60
2018-10-19T23:01:56.862Z,94.30
2018-10-19T23:04:25.287Z,94.30
2018-10-19T23:06:53.854Z,94.10
2018-10-19T23:09:22.532Z,94.10
2018-10-19T23:11:51.033Z,94.30
2018-10-19T23:14:19.460Z,94.20
2018-10-19T23:16:47.960Z,94.40
2018-10-19T23:19:16.783Z,94.10
2018-10-19T23:21:45.235Z,94.10
2018-10-19T23:24:13.637Z,94.30
2018-10-19T23:26:42.489Z,94.10
2018-10-19T23:29:10.951Z,94.10
2018-10-19T23:31:39.584Z,94.10
2018-10-19T23:34:08.061Z,94.10
2018-10-19T23:36:36.913Z,94.30
2018-10-19T23:39:07.758Z,94.20
2018-10-19T23:41:36.724Z,94.30
2018-10-19T23:44:05.322Z,94.30
2018-10-19T23:46:33.836Z,94.20
2018-10-19T23:49:02.493Z,94.60
2018-10-19T23:51:30.964Z,94.50
2018-10-19T23:54:00.090Z,94.30
2018-10-19T23:56:28.622Z,94.30
2018-10-19T23:58:57.329Z,94.70
